createdAt,value
2022-11-13T03:59:25.972Z,1021.31
2022-11-13T04:00:25.927Z,1021.27
2022-11-13T04:01:25.997Z,1021.29
2022-11-13T04:02:27.527Z,1021.30
2022-11-13T04:03:27.500Z,1021.32
2022-11-13T04:04:27.499Z,1021.33
2022-11-13T04:05:27.514Z,1021.32
2022-11-13T04:06:27.501Z,1021.32
2022-11-13T04:07:27.565Z,1021.30
2022-11-13T04:08:27.852Z,1021.28
2022-11-13T04:09:27.530Z,1021.27
2022-11-13T04:10:27.514Z,1021.25
2022-11-13T04:11:26.853Z,1021.23
2022-11-13T04:12:27.539Z,1021.22
2022-11-13T04:13:26.839Z,1021.24
2022-11-13T04:14:27.637Z,1021.26
2022-11-13T04:15:27.642Z,1021.23
2022-11-13T04:16:27.510Z,1021.22
2022-11-13T04:17:27.555Z,1021.23
2022-11-13T04:18:27.859Z,1021.23
2022-11-13T04:19:27.731Z,1021.21
2022-11-13T04:20:27.514Z,1021.20
2022-11-13T04:21:27.512Z,1021.16
2022-11-13T04:22:27.025Z,1021.15
2022-11-13T04:23:27.511Z,1021.16
2022-11-13T04:24:25.894Z,1021.18
2022-11-13T04:25:27.025Z,1021.14
2022-11-13T04:26:25.776Z,1021.14
2022-11-13T04:27:25.804Z,1021.10
2022-11-13T04:28:26.024Z,1021.11
2022-11-13T04:29:25.785Z,1021.07
2022-11-13T04:30:27.539Z,1021.07
2022-11-13T04:31:25.862Z,1021.08
2022-11-13T04:32:25.765Z,1021.09
2022-11-13T04:33:26.752Z,1021.08
2022-11-13T04:34:27.532Z,1021.09
2022-11-13T04:35:27.544Z,1021.08
2022-11-13T04:36:27.543Z,1021.06
2022-11-13T04:37:27.555Z,1021.09
2022-11-13T04:38:27.944Z,1021.12
2022-11-13T04:39:27.532Z,1021.12
2022-11-13T04:40:27.542Z,1021.12
2022-11-13T04:41:27.548Z,1021.14
2022-11-13T04:42:27.554Z,1021.16
2022-11-13T04:43:27.542Z,1021.15
2022-11-13T04:44:27.538Z,1021.16
2022-11-13T04:45:27.589Z,1021.15
2022-11-13T04:46:27.553Z,1021.14
2022-11-13T04:47:27.650Z,1021.11
2022-11-13T04:48:27.302Z,1021.11
2022-11-13T04:49:27.526Z,1021.08
2022-11-13T04:50:27.557Z,1021.06
2022-11-13T04:51:25.701Z,1021.02
2022-11-13T04:52:25.717Z,1020.97
2022-11-13T04:53:27.070Z,1020.98
2022-11-13T04:54:28.752Z,1020.98
2022-11-13T04:55:25.670Z,1020.96
2022-11-13T04:56:27.053Z,1020.94
2022-11-13T04:57:25.683Z,1020.93
2022-11-13T04:58:25.963Z,1020.93
2022-11-13T04:59:25.662Z,1020.93
2022-11-13T05:00:27.581Z,1020.90
2022-11-13T05:01:25.664Z,1020.89
2022-11-13T05:02:25.649Z,1020.88
2022-11-13T05:03:25.750Z,1020.89
2022-11-13T05:04:25.631Z,1020.87
2022-11-13T05:05:27.064Z,1020.87
2022-11-13T05:06:25.619Z,1020.84
2022-11-13T05:07:27.547Z,1020.87
2022-11-13T05:08:26.903Z,1020.87
2022-11-13T05:09:27.582Z,1020.90
2022-11-13T05:10:25.607Z,1020.89
2022-11-13T05:11:27.561Z,1020.84
2022-11-13T05:12:26.611Z,1020.89
2022-11-13T05:13:26.595Z,1020.83
2022-11-13T05:14:27.568Z,1020.83
2022-11-13T05:15:26.592Z,1020.80
2022-11-13T05:16:27.554Z,1020.80
2022-11-13T05:17:26.604Z,1020.78
2022-11-13T05:18:27.797Z,1020.80
2022-11-13T05:19:27.665Z,1020.82
2022-11-13T05:20:27.058Z,1020.80
2022-11-13T05:21:27.091Z,1020.80
2022-11-13T05:22:27.088Z,1020.80
2022-11-13T05:23:27.074Z,1020.82
2022-11-13T05:24:27.063Z,1020.81
2022-11-13T05:25:27.085Z,1020.78
2022-11-13T05:26:27.089Z,1020.82
2022-11-13T05:27:27.068Z,1020.76
2022-11-13T05:28:27.468Z,1020.73
2022-11-13T05:29:26.525Z,1020.74
2022-11-13T05:30:25.528Z,1020.71
2022-11-13T05:31:26.627Z,1020.68
2022-11-13T05:32:27.097Z,1020.64
2022-11-13T05:33:26.527Z,1020.66
2022-11-13T05:34:26.513Z,1020.64
2022-11-13T05:35:26.632Z,1020.64
2022-11-13T05:36:27.082Z,1020.66
2022-11-13T05:37:27.099Z,1020.65
2022-11-13T05:38:27.510Z,1020.66
2022-11-13T05:39:25.518Z,1020.60
2022-11-13T05:40:27.088Z,1020.58
2022-11-13T05:41:27.092Z,1020.61
2022-11-13T05:42:27.140Z,1020.60
2022-11-13T05:43:25.483Z,1020.58
2022-11-13T05:44:27.127Z,1020.54
2022-11-13T05:45:27.083Z,1020.53
2022-11-13T05:46:25.460Z,1020.48
2022-11-13T05:47:27.100Z,1020.51
2022-11-13T05:48:27.517Z,1020.49
2022-11-13T05:49:27.085Z,1020.51
2022-11-13T05:50:27.086Z,1020.49
2022-11-13T05:51:27.183Z,1020.46
2022-11-13T05:52:27.099Z,1020.47
2022-11-13T05:53:27.107Z,1020.44
2022-11-13T05:54:27.095Z,1020.42
2022-11-13T05:55:27.103Z,1020.41
2022-11-13T05:56:27.091Z,1020.40
2022-11-13T05:57:27.087Z,1020.43
2022-11-13T05:58:27.475Z,1020.40
2022-11-13T05:59:27.096Z,1020.44
2022-11-13T06:00:27.138Z,1020.42
2022-11-13T06:01:27.182Z,1020.41
2022-11-13T06:02:27.123Z,1020.39
2022-11-13T06:03:25.399Z,1020.40
2022-11-13T06:04:26.609Z,1020.40
2022-11-13T06:05:25.393Z,1020.38
2022-11-13T06:06:25.414Z,1020.37
2022-11-13T06:07:26.499Z,1020.33
2022-11-13T06:08:27.665Z,1020.31
2022-11-13T06:09:27.114Z,1020.28
2022-11-13T06:10:27.096Z,1020.29
2022-11-13T06:11:27.108Z,1020.28
2022-11-13T06:12:27.118Z,1020.25
2022-11-13T06:13:27.122Z,1020.27
2022-11-13T06:14:27.126Z,1020.24
2022-11-13T06:15:27.122Z,1020.24
2022-11-13T06:16:27.109Z,1020.25
2022-11-13T06:17:27.105Z,1020.24
2022-11-13T06:18:27.148Z,1020.26
2022-11-13T06:19:27.164Z,1020.27
2022-11-13T06:20:27.105Z,1020.25
2022-11-13T06:21:27.128Z,1020.22
2022-11-13T06:22:27.107Z,1020.23
2022-11-13T06:23:27.248Z,1020.23
2022-11-13T06:24:27.166Z,1020.18
2022-11-13T06:25:26.319Z,1020.19
2022-11-13T06:26:27.118Z,1020.19
2022-11-13T06:27:27.139Z,1020.19
2022-11-13T06:28:27.712Z,1020.19
2022-11-13T06:29:27.114Z,1020.21
2022-11-13T06:30:27.117Z,1020.16
2022-11-13T06:31:27.145Z,1020.18
2022-11-13T06:32:27.127Z,1020.15
2022-11-13T06:33:26.279Z,1020.13
2022-11-13T06:34:27.136Z,1020.15
2022-11-13T06:35:25.278Z,1020.17
2022-11-13T06:36:25.326Z,1020.15
2022-11-13T06:37:29.564Z,1020.16
2022-11-13T06:38:25.472Z,1020.14
2022-11-13T06:39:26.410Z,1020.16
2022-11-13T06:40:26.251Z,1020.20
2022-11-13T06:41:27.141Z,1020.21
2022-11-13T06:42:27.143Z,1020.19
2022-11-13T06:43:26.243Z,1020.19
2022-11-13T06:44:27.137Z,1020.17
2022-11-13T06:45:26.227Z,1020.18
2022-11-13T06:46:28.138Z,1020.15
2022-11-13T06:47:27.140Z,1020.13
2022-11-13T06:48:26.716Z,1020.15
2022-11-13T06:49:27.159Z,1020.14
2022-11-13T06:50:27.149Z,1020.14
2022-11-13T06:51:27.136Z,1020.13
2022-11-13T06:52:26.205Z,1020.16
2022-11-13T06:53:27.174Z,1020.17
2022-11-13T06:54:26.204Z,1020.20
2022-11-13T06:55:26.310Z,1020.21
2022-11-13T06:56:27.155Z,1020.20
2022-11-13T06:57:27.140Z,1020.19
2022-11-13T06:58:27.543Z,1020.23
2022-11-13T06:59:27.164Z,1020.26
2022-11-13T07:00:29.064Z,1020.26
2022-11-13T07:01:27.369Z,1020.23
2022-11-13T07:02:27.180Z,1020.23
2022-11-13T07:03:27.176Z,1020.25
2022-11-13T07:04:27.164Z,1020.20
2022-11-13T07:05:27.158Z,1020.20
2022-11-13T07:06:26.661Z,1020.18
2022-11-13T07:07:25.242Z,1020.13
2022-11-13T07:08:26.467Z,1020.10
2022-11-13T07:09:26.144Z,1020.08
2022-11-13T07:10:26.141Z,1020.10
2022-11-13T07:11:26.766Z,1020.10
2022-11-13T07:12:26.658Z,1020.06
2022-11-13T07:13:26.720Z,1020.05
2022-11-13T07:14:26.664Z,1020.05
2022-11-13T07:15:26.653Z,1020.05
2022-11-13T07:16:34.678Z,1020.08
2022-11-13T07:17:26.651Z,1020.12
2022-11-13T07:18:26.946Z,1020.13
2022-11-13T07:19:26.690Z,1020.14
2022-11-13T07:20:26.742Z,1020.17
2022-11-13T07:21:26.691Z,1020.16
2022-11-13T07:22:26.665Z,1020.14
2022-11-13T07:23:26.671Z,1020.13
2022-11-13T07:24:26.668Z,1020.15
2022-11-13T07:25:26.662Z,1020.13
2022-11-13T07:26:26.678Z,1020.14
2022-11-13T07:27:26.764Z,1020.17
2022-11-13T07:28:27.053Z,1020.17
2022-11-13T07:29:26.667Z,1020.22
2022-11-13T07:30:26.714Z,1020.20
2022-11-13T07:31:26.774Z,1020.20
2022-11-13T07:32:26.683Z,1020.18
2022-11-13T07:33:26.673Z,1020.20
2022-11-13T07:34:26.685Z,1020.16
2022-11-13T07:35:26.695Z,1020.14
2022-11-13T07:36:26.690Z,1020.12
2022-11-13T07:37:26.677Z,1020.11
2022-11-13T07:38:25.305Z,1020.08
2022-11-13T07:39:26.183Z,1020.07
2022-11-13T07:40:25.053Z,1020.04
2022-11-13T07:41:25.027Z,1019.99
2022-11-13T07:42:26.697Z,1019.99
2022-11-13T07:43:26.785Z,1020.01
2022-11-13T07:44:52.953Z,1019.97
2022-11-13T07:45:26.687Z,1019.98
2022-11-13T07:46:26.759Z,1019.98
2022-11-13T07:47:26.706Z,1019.97
2022-11-13T07:48:27.156Z,1019.97
2022-11-13T07:49:26.723Z,1019.92
2022-11-13T07:50:26.726Z,1019.92
2022-11-13T07:51:26.699Z,1019.93
2022-11-13T07:52:26.698Z,1019.96
2022-11-13T07:53:26.688Z,1019.94
2022-11-13T07:54:26.704Z,1019.91
2022-11-13T07:55:26.717Z,1019.90
2022-11-13T07:56:26.740Z,1019.92
2022-11-13T07:57:26.683Z,1019.89
2022-11-13T07:58:27.164Z,1019.87
2022-11-13T07:59:26.052Z,1019.91
2022-11-13T08:00:26.043Z,1019.93
2022-11-13T08:01:25.025Z,1019.95
2022-11-13T08:02:27.021Z,1019.98
2022-11-13T08:03:26.219Z,1019.95
2022-11-13T08:04:25.933Z,1019.93
2022-11-13T08:05:25.933Z,1019.95
2022-11-13T08:06:24.954Z,1019.94
2022-11-13T08:07:26.803Z,1019.91
2022-11-13T08:08:26.175Z,1019.90
2022-11-13T08:09:25.916Z,1019.90
2022-11-13T08:10:24.922Z,1019.90
2022-11-13T08:11:24.928Z,1019.90
2022-11-13T08:12:24.949Z,1019.87
2022-11-13T08:13:26.237Z,1019.88
2022-11-13T08:14:25.899Z,1019.81
2022-11-13T08:15:26.015Z,1019.81
2022-11-13T08:16:26.709Z,1019.87
2022-11-13T08:17:24.902Z,1019.86
2022-11-13T08:18:27.089Z,1019.84
2022-11-13T08:19:25.895Z,1019.83
2022-11-13T08:20:26.708Z,1019.79
2022-11-13T08:21:26.749Z,1019.79
2022-11-13T08:22:24.870Z,1019.82
2022-11-13T08:23:26.724Z,1019.79
2022-11-13T08:24:26.730Z,1019.80
2022-11-13T08:25:25.877Z,1019.76
2022-11-13T08:26:26.738Z,1019.79
2022-11-13T08:27:26.738Z,1019.80
2022-11-13T08:28:27.129Z,1019.77
2022-11-13T08:29:26.724Z,1019.78
2022-11-13T08:30:26.726Z,1019.76
2022-11-13T08:31:26.822Z,1019.72
2022-11-13T08:32:26.724Z,1019.76
2022-11-13T08:33:26.749Z,1019.73
2022-11-13T08:34:26.721Z,1019.74
2022-11-13T08:35:29.420Z,1019.72
2022-11-13T08:36:26.785Z,1019.69
2022-11-13T08:37:26.721Z,1019.71
2022-11-13T08:38:27.092Z,1019.65
2022-11-13T08:39:26.755Z,1019.66
2022-11-13T08:40:26.770Z,1019.68
2022-11-13T08:41:26.725Z,1019.64
2022-11-13T08:42:26.754Z,1019.64
2022-11-13T08:43:26.741Z,1019.66
2022-11-13T08:44:26.738Z,1019.65
2022-11-13T08:45:26.748Z,1019.63
2022-11-13T08:46:26.740Z,1019.63
2022-11-13T08:47:29.436Z,1019.60
2022-11-13T08:48:27.091Z,1019.60
2022-11-13T08:49:26.781Z,1019.59
2022-11-13T08:50:26.762Z,1019.58
2022-11-13T08:51:25.790Z,1019.53
2022-11-13T08:52:26.733Z,1019.54
2022-11-13T08:53:26.776Z,1019.59
2022-11-13T08:54:26.736Z,1019.59
2022-11-13T08:55:26.795Z,1019.57
2022-11-13T08:56:26.766Z,1019.54
2022-11-13T08:57:26.755Z,1019.55
2022-11-13T08:58:27.077Z,1019.51
2022-11-13T08:59:26.765Z,1019.52
2022-11-13T09:00:26.748Z,1019.55
2022-11-13T09:01:26.753Z,1019.57
2022-11-13T09:02:26.299Z,1019.53
2022-11-13T09:03:26.374Z,1019.55
2022-11-13T09:04:26.314Z,1019.55
2022-11-13T09:05:26.258Z,1019.53
2022-11-13T09:06:26.266Z,1019.55
2022-11-13T09:07:27.626Z,1019.56
2022-11-13T09:08:26.550Z,1019.55
2022-11-13T09:09:26.251Z,1019.54
2022-11-13T09:10:26.259Z,1019.53
2022-11-13T09:11:26.268Z,1019.54
2022-11-13T09:12:26.256Z,1019.57
2022-11-13T09:13:26.258Z,1019.51
2022-11-13T09:14:24.732Z,1019.55
2022-11-13T09:15:25.776Z,1019.50
2022-11-13T09:16:26.309Z,1019.50
2022-11-13T09:17:26.303Z,1019.52
2022-11-13T09:18:26.119Z,1019.52
2022-11-13T09:19:26.414Z,1019.52
2022-11-13T09:20:26.409Z,1019.56
2022-11-13T09:21:26.313Z,1019.51
2022-11-13T09:22:26.326Z,1019.47
2022-11-13T09:23:24.692Z,1019.47
2022-11-13T09:24:25.707Z,1019.45
2022-11-13T09:25:25.776Z,1019.48
2022-11-13T09:26:25.693Z,1019.47
2022-11-13T09:27:24.693Z,1019.46
2022-11-13T09:28:27.789Z,1019.48
2022-11-13T09:29:25.691Z,1019.46
2022-11-13T09:30:25.783Z,1019.47
2022-11-13T09:31:24.685Z,1019.43
2022-11-13T09:32:24.680Z,1019.45
2022-11-13T09:33:25.818Z,1019.44
2022-11-13T09:34:24.673Z,1019.47
2022-11-13T09:35:25.917Z,1019.47
2022-11-13T09:36:25.784Z,1019.48
2022-11-13T09:37:24.660Z,1019.49
2022-11-13T09:38:24.676Z,1019.49
2022-11-13T09:39:24.658Z,1019.48
2022-11-13T09:40:24.649Z,1019.46
2022-11-13T09:41:25.814Z,1019.51
2022-11-13T09:42:24.668Z,1019.52
2022-11-13T09:43:24.641Z,1019.57
2022-11-13T09:44:24.645Z,1019.56
2022-11-13T09:45:24.653Z,1019.55
2022-11-13T09:46:26.819Z,1019.55
2022-11-13T09:47:24.658Z,1019.55
2022-11-13T09:48:24.658Z,1019.55
2022-11-13T09:49:26.307Z,1019.51
2022-11-13T09:50:25.641Z,1019.53
2022-11-13T09:51:26.453Z,1019.47
2022-11-13T09:52:25.652Z,1019.49
2022-11-13T09:53:26.332Z,1019.51
2022-11-13T09:54:26.294Z,1019.47
2022-11-13T09:55:26.318Z,1019.45
2022-11-13T09:56:26.306Z,1019.43
2022-11-13T09:57:26.694Z,1019.42
2022-11-13T09:58:26.564Z,1019.40
2022-11-13T09:59:26.378Z,1019.36
2022-11-13T10:00:26.329Z,1019.36
2022-11-13T10:01:26.456Z,1019.31
2022-11-13T10:02:26.310Z,1019.26
2022-11-13T10:13:37.088Z,1019.13
2022-11-13T10:14:36.938Z,1019.11
2022-11-13T10:15:36.947Z,1019.11
2022-11-13T10:16:36.912Z,1019.08
2022-11-13T10:17:36.908Z,1019.07
2022-11-13T10:18:36.930Z,1019.09
2022-11-13T10:19:36.917Z,1019.07
2022-11-13T10:20:36.919Z,1019.05
2022-11-13T10:21:36.954Z,1019.07
2022-11-13T10:22:36.916Z,1019.02
2022-11-13T10:23:36.916Z,1019.06
2022-11-13T10:24:36.914Z,1019.03
2022-11-13T10:25:36.917Z,1019.03
2022-11-13T10:26:36.969Z,1019.02
2022-11-13T10:27:36.999Z,1019.02
2022-11-13T10:28:50.558Z,1019.03
2022-11-13T10:29:37.027Z,1019.01
2022-11-13T10:30:36.934Z,1019.02
2022-11-13T10:31:36.449Z,1019.00
2022-11-13T10:32:35.305Z,1019.00
2022-11-13T10:33:35.286Z,1019.01
2022-11-13T10:34:35.285Z,1018.97
2022-11-13T10:35:35.305Z,1018.99
2022-11-13T10:36:36.437Z,1018.92
2022-11-13T10:37:35.291Z,1018.98
2022-11-13T10:38:35.303Z,1018.93
2022-11-13T10:39:35.286Z,1018.93
2022-11-13T10:40:35.285Z,1018.92
2022-11-13T10:41:37.473Z,1018.93
2022-11-13T10:42:35.281Z,1018.90
2022-11-13T10:43:35.286Z,1018.89
2022-11-13T10:44:37.453Z,1018.84
2022-11-13T10:45:36.379Z,1018.84
2022-11-13T10:46:36.283Z,1018.82
2022-11-13T10:48:02.372Z,1018.84
2022-11-13T10:48:35.279Z,1018.79
2022-11-13T10:49:36.962Z,1018.80
2022-11-13T10:50:36.289Z,1018.77
2022-11-13T10:51:35.298Z,1018.73
2022-11-13T10:52:36.974Z,1018.75
2022-11-13T10:53:35.275Z,1018.72
2022-11-13T10:54:36.950Z,1018.69
2022-11-13T10:55:36.264Z,1018.68
2022-11-13T10:56:36.969Z,1018.64
2022-11-13T10:57:35.262Z,1018.65
2022-11-13T10:58:36.995Z,1018.64
2022-11-13T10:59:36.468Z,1018.59
2022-11-13T11:00:36.266Z,1018.58
2022-11-13T11:01:35.398Z,1018.55
2022-11-13T11:02:35.255Z,1018.54
2022-11-13T11:03:36.999Z,1018.53
2022-11-13T11:04:36.998Z,1018.49
2022-11-13T11:05:37.029Z,1018.49
2022-11-13T11:07:12.888Z,1018.51
2022-11-13T11:07:37.014Z,1018.48
2022-11-13T11:08:35.297Z,1018.46
2022-11-13T11:09:36.471Z,1018.48
2022-11-13T11:10:36.277Z,1018.46
2022-11-13T11:11:36.250Z,1018.46
2022-11-13T11:12:35.269Z,1018.45
2022-11-13T11:13:36.978Z,1018.42
2022-11-13T11:14:36.254Z,1018.42
2022-11-13T11:15:36.247Z,1018.39
2022-11-13T11:16:37.130Z,1018.38
2022-11-13T11:17:36.964Z,1018.37
2022-11-13T11:18:36.967Z,1018.34
2022-11-13T11:19:36.995Z,1018.33
2022-11-13T11:20:36.975Z,1018.32
2022-11-13T11:21:36.975Z,1018.35
2022-11-13T11:22:36.978Z,1018.32
2022-11-13T11:23:36.991Z,1018.31
2022-11-13T11:24:36.988Z,1018.27
2022-11-13T11:25:36.984Z,1018.23
2022-11-13T11:26:36.975Z,1018.24
2022-11-13T11:27:36.989Z,1018.25
2022-11-13T11:28:36.993Z,1018.23
2022-11-13T11:29:36.993Z,1018.25
2022-11-13T11:30:37.007Z,1018.22
2022-11-13T11:31:36.992Z,1018.23
2022-11-13T11:32:37.098Z,1018.16
2022-11-13T11:33:36.495Z,1018.18
2022-11-13T11:34:35.242Z,1018.17
2022-11-13T11:35:35.252Z,1018.12
2022-11-13T11:36:35.249Z,1018.09
2022-11-13T11:37:35.240Z,1018.09
2022-11-13T11:38:37.040Z,1018.08
2022-11-13T11:39:35.234Z,1018.07
2022-11-13T11:40:35.312Z,1018.05
2022-11-13T11:41:35.236Z,1018.06
2022-11-13T11:42:37.071Z,1018.01
2022-11-13T11:43:35.244Z,1018.00
2022-11-13T11:44:35.234Z,1017.94
2022-11-13T11:45:35.282Z,1017.96
2022-11-13T11:46:35.251Z,1017.94
2022-11-13T11:47:37.017Z,1017.92
2022-11-13T11:48:37.125Z,1017.92
2022-11-13T11:49:37.004Z,1017.87
2022-11-13T11:50:36.511Z,1017.82
2022-11-13T11:51:37.006Z,1017.82
2022-11-13T11:52:37.001Z,1017.79
2022-11-13T11:53:37.015Z,1017.82
2022-11-13T11:54:37.026Z,1017.83
2022-11-13T11:55:37.025Z,1017.83
2022-11-13T11:56:37.019Z,1017.80
2022-11-13T11:57:37.029Z,1017.82
2022-11-13T11:58:37.005Z,1017.71
2022-11-13T11:59:37.007Z,1017.71
2022-11-13T12:00:37.041Z,1017.70
2022-11-13T12:01:37.012Z,1017.67
2022-11-13T12:02:37.035Z,1017.65
2022-11-13T12:03:35.234Z,1017.65
2022-11-13T12:04:35.455Z,1017.63
2022-11-13T12:05:37.599Z,1017.67
2022-11-13T12:06:35.250Z,1017.70
2022-11-13T12:07:35.277Z,1017.66
2022-11-13T12:08:35.256Z,1017.65
2022-11-13T12:09:35.244Z,1017.67
2022-11-13T12:10:37.558Z,1017.70
2022-11-13T12:11:35.256Z,1017.68
2022-11-13T12:12:35.303Z,1017.66
2022-11-13T12:13:35.257Z,1017.67
2022-11-13T12:14:35.249Z,1017.67
2022-11-13T12:15:36.125Z,1017.69
2022-11-13T12:16:37.540Z,1017.68
2022-11-13T12:17:35.259Z,1017.69
2022-11-13T12:18:35.269Z,1017.67
2022-11-13T12:19:35.269Z,1017.64
2022-11-13T12:20:37.138Z,1017.60
2022-11-13T12:21:36.544Z,1017.59
2022-11-13T12:22:35.272Z,1017.58
2022-11-13T12:23:37.045Z,1017.54
2022-11-13T12:24:36.553Z,1017.54
2022-11-13T12:25:37.045Z,1017.50
2022-11-13T12:26:36.305Z,1017.46
2022-11-13T12:27:35.283Z,1017.46
2022-11-13T12:28:40.853Z,1017.38
2022-11-13T12:29:35.313Z,1017.40
2022-11-13T12:30:37.066Z,1017.38
2022-11-13T12:31:35.311Z,1017.34
2022-11-13T12:32:37.069Z,1017.32
2022-11-13T12:33:37.056Z,1017.36
2022-11-13T12:34:37.056Z,1017.35
2022-11-13T12:35:37.096Z,1017.36
2022-11-13T12:36:37.165Z,1017.36
2022-11-13T12:37:37.087Z,1017.37
2022-11-13T12:38:36.319Z,1017.35
2022-11-13T12:39:36.320Z,1017.32
2022-11-13T12:40:39.840Z,1017.36
2022-11-13T12:41:37.067Z,1017.38
2022-11-13T12:42:36.328Z,1017.42
2022-11-13T12:43:36.355Z,1017.38
2022-11-13T12:44:35.394Z,1017.40
2022-11-13T12:45:36.337Z,1017.38
2022-11-13T12:46:36.581Z,1017.36
2022-11-13T12:47:35.381Z,1017.37
2022-11-13T12:48:37.573Z,1017.37
2022-11-13T12:49:36.577Z,1017.36
2022-11-13T12:50:37.063Z,1017.42
2022-11-13T12:51:37.091Z,1017.36
2022-11-13T12:52:37.167Z,1017.37
2022-11-13T12:53:37.086Z,1017.34
2022-11-13T12:54:37.096Z,1017.34
2022-11-13T12:55:37.071Z,1017.31
2022-11-13T12:56:37.100Z,1017.33
2022-11-13T12:57:37.068Z,1017.33
2022-11-13T12:58:37.076Z,1017.35
2022-11-13T12:59:37.187Z,1017.38
2022-11-13T13:00:37.120Z,1017.33
2022-11-13T13:01:35.448Z,1017.30
2022-11-13T13:02:37.116Z,1017.34
2022-11-13T13:03:36.423Z,1017.30
2022-11-13T13:04:35.429Z,1017.35
2022-11-13T13:05:37.671Z,1017.34
2022-11-13T13:06:35.436Z,1017.38
2022-11-13T13:07:36.620Z,1017.36
2022-11-13T13:08:35.559Z,1017.38
2022-11-13T13:09:35.479Z,1017.35
2022-11-13T13:10:35.466Z,1017.36
2022-11-13T13:11:35.460Z,1017.32
2022-11-13T13:12:36.602Z,1017.30
2022-11-13T13:13:36.602Z,1017.34
2022-11-13T13:14:35.515Z,1017.25
2022-11-13T13:15:35.475Z,1017.26
2022-11-13T13:16:35.485Z,1017.25
2022-11-13T13:17:36.604Z,1017.24
2022-11-13T13:18:35.486Z,1017.23
2022-11-13T13:19:35.487Z,1017.21
2022-11-13T13:20:35.520Z,1017.21
2022-11-13T13:21:35.509Z,1017.20
2022-11-13T13:22:37.120Z,1017.16
2022-11-13T13:23:37.217Z,1017.16
2022-11-13T13:24:37.103Z,1017.16
2022-11-13T13:25:37.143Z,1017.12
2022-11-13T13:26:37.122Z,1017.13
2022-11-13T13:27:37.164Z,1017.14
2022-11-13T13:28:36.541Z,1017.12
2022-11-13T13:29:35.533Z,1017.12
2022-11-13T13:30:37.165Z,1017.10
2022-11-13T13:31:37.133Z,1017.06
2022-11-13T13:32:37.129Z,1017.01
2022-11-13T13:33:37.120Z,1017.01
2022-11-13T13:34:37.148Z,1017.02
2022-11-13T13:35:36.630Z,1017.03
2022-11-13T13:36:37.124Z,1017.05
2022-11-13T13:37:37.123Z,1017.00
2022-11-13T13:38:35.576Z,1016.95
2022-11-13T13:39:37.279Z,1016.91
2022-11-13T13:40:37.159Z,1016.88
2022-11-13T13:41:36.591Z,1016.88
2022-11-13T13:42:37.134Z,1016.85
2022-11-13T13:43:37.201Z,1016.84
2022-11-13T13:44:36.680Z,1016.82
2022-11-13T13:45:36.648Z,1016.83
2022-11-13T13:46:36.662Z,1016.79
2022-11-13T13:47:35.614Z,1016.78
2022-11-13T13:48:35.629Z,1016.77
2022-11-13T13:49:35.624Z,1016.78
2022-11-13T13:50:36.649Z,1016.76
2022-11-13T13:51:35.630Z,1016.74
2022-11-13T13:52:35.637Z,1016.72
2022-11-13T13:53:35.644Z,1016.71
2022-11-13T13:54:35.639Z,1016.70
2022-11-13T13:55:37.273Z,1016.74
2022-11-13T13:56:36.647Z,1016.73
2022-11-13T13:57:35.679Z,1016.73
2022-11-13T13:58:37.648Z,1016.72
2022-11-13T13:59:37.667Z,1016.72
2022-11-13T14:00:53.196Z,1016.67
2022-11-13T14:01:36.812Z,1016.69
2022-11-13T14:02:35.674Z,1016.70
2022-11-13T14:03:37.748Z,1016.71
2022-11-13T14:04:36.719Z,1016.70
2022-11-13T14:05:37.715Z,1016.68
2022-11-13T14:06:36.704Z,1016.67
2022-11-13T14:07:37.650Z,1016.69
2022-11-13T14:08:36.716Z,1016.67
2022-11-13T14:09:37.654Z,1016.67
2022-11-13T14:10:37.186Z,1016.68
2022-11-13T14:11:37.776Z,1016.68
2022-11-13T14:12:37.653Z,1016.66
2022-11-13T14:13:36.708Z,1016.67
2022-11-13T14:14:35.714Z,1016.66
2022-11-13T14:15:38.257Z,1016.65
2022-11-13T14:16:37.172Z,1016.65
2022-11-13T14:17:35.726Z,1016.66
2022-11-13T14:18:36.736Z,1016.68
2022-11-13T14:19:36.731Z,1016.67
2022-11-13T14:20:36.746Z,1016.67
2022-11-13T14:21:37.189Z,1016.61
2022-11-13T14:22:36.737Z,1016.65
2022-11-13T14:23:35.733Z,1016.66
2022-11-13T14:24:35.770Z,1016.65
2022-11-13T14:25:35.738Z,1016.63
2022-11-13T14:26:37.229Z,1016.59
2022-11-13T14:27:37.780Z,1016.59
2022-11-13T14:28:37.700Z,1016.57
2022-11-13T14:29:37.705Z,1016.58
2022-11-13T14:30:37.683Z,1016.57
2022-11-13T14:31:37.689Z,1016.57
2022-11-13T14:32:37.682Z,1016.60
2022-11-13T14:33:37.708Z,1016.58
2022-11-13T14:34:37.699Z,1016.57
2022-11-13T14:35:37.683Z,1016.54
2022-11-13T14:36:37.707Z,1016.53
2022-11-13T14:37:35.805Z,1016.53
2022-11-13T14:38:37.202Z,1016.49
2022-11-13T14:39:37.700Z,1016.49
2022-11-13T14:40:35.760Z,1016.52
2022-11-13T14:41:35.787Z,1016.51
2022-11-13T14:42:35.828Z,1016.53
2022-11-13T14:43:35.864Z,1016.51
2022-11-13T14:44:37.723Z,1016.54
2022-11-13T14:45:35.779Z,1016.57
2022-11-13T14:46:37.209Z,1016.56
2022-11-13T14:47:35.768Z,1016.60
2022-11-13T14:48:35.762Z,1016.56
2022-11-13T14:49:35.809Z,1016.56
2022-11-13T14:50:35.911Z,1016.59
2022-11-13T14:51:37.237Z,1016.57
2022-11-13T14:52:35.775Z,1016.56
2022-11-13T14:53:35.758Z,1016.57
2022-11-13T14:55:07.924Z,1016.56
2022-11-13T14:55:35.757Z,1016.57
2022-11-13T14:56:36.806Z,1016.58
2022-11-13T14:57:37.720Z,1016.61
2022-11-13T14:58:37.727Z,1016.58
2022-11-13T14:59:37.820Z,1016.60
2022-11-13T15:00:37.707Z,1016.57
2022-11-13T15:01:36.755Z,1016.58
2022-11-13T15:02:37.744Z,1016.62
2022-11-13T15:03:37.797Z,1016.55
2022-11-13T15:04:40.409Z,1016.53
2022-11-13T15:05:37.717Z,1016.58
2022-11-13T15:06:37.739Z,1016.61
2022-11-13T15:07:37.715Z,1016.59
2022-11-13T15:08:37.765Z,1016.64
2022-11-13T15:09:37.714Z,1016.63
2022-11-13T15:10:37.743Z,1016.63
2022-11-13T15:11:37.734Z,1016.62
2022-11-13T15:12:37.720Z,1016.64
2022-11-13T15:13:37.735Z,1016.65
2022-11-13T15:14:37.777Z,1016.69
2022-11-13T15:15:35.857Z,1016.67
2022-11-13T15:16:37.737Z,1016.67
2022-11-13T15:17:35.760Z,1016.66
2022-11-13T15:18:37.247Z,1016.69
2022-11-13T15:19:36.765Z,1016.69
2022-11-13T15:20:35.781Z,1016.71
2022-11-13T15:21:37.742Z,1016.71
2022-11-13T15:22:35.762Z,1016.65
2022-11-13T15:23:37.332Z,1016.66
2022-11-13T15:24:35.728Z,1016.65
2022-11-13T15:25:36.742Z,1016.63
2022-11-13T15:26:35.771Z,1016.64
2022-11-13T15:27:40.220Z,1016.65
2022-11-13T15:28:35.709Z,1016.62
2022-11-13T15:29:36.727Z,1016.65
2022-11-13T15:30:36.751Z,1016.61
2022-11-13T15:31:36.912Z,1016.61
2022-11-13T15:32:35.704Z,1016.61
2022-11-13T15:33:37.235Z,1016.61
2022-11-13T15:34:35.705Z,1016.66
2022-11-13T15:35:37.267Z,1016.60
2022-11-13T15:36:36.732Z,1016.63
2022-11-13T15:37:37.765Z,1016.63
2022-11-13T15:38:35.685Z,1016.62
2022-11-13T15:39:37.270Z,1016.60
2022-11-13T15:40:36.767Z,1016.61
2022-11-13T15:41:37.329Z,1016.60
2022-11-13T15:42:37.246Z,1016.59
2022-11-13T15:43:37.265Z,1016.57
2022-11-13T15:44:37.281Z,1016.58
2022-11-13T15:45:42.796Z,1016.56
2022-11-13T15:46:37.314Z,1016.56
2022-11-13T15:47:37.374Z,1016.50
2022-11-13T15:48:37.257Z,1016.54
2022-11-13T15:49:37.610Z,1016.56
2022-11-13T15:50:37.291Z,1016.54
2022-11-13T15:51:36.786Z,1016.57
2022-11-13T15:52:36.765Z,1016.60
2022-11-13T15:53:35.659Z,1016.58
2022-11-13T15:54:36.654Z,1016.58
2022-11-13T15:55:36.765Z,1016.63
2022-11-13T15:56:36.682Z,1016.61
2022-11-13T15:57:36.658Z,1016.59
2022-11-13T15:58:36.652Z,1016.61
2022-11-13T15:59:37.270Z,1016.62
2022-11-13T16:00:37.277Z,1016.61
2022-11-13T16:12:47.872Z,1016.48
2022-11-13T16:13:47.745Z,1016.46
2022-11-13T16:14:47.750Z,1016.49
2022-11-13T16:15:47.786Z,1016.49
2022-11-13T16:16:47.749Z,1016.48
2022-11-13T16:17:47.789Z,1016.49
2022-11-13T16:18:47.748Z,1016.52
2022-11-13T16:19:47.780Z,1016.52
2022-11-13T16:20:47.779Z,1016.56
2022-11-13T16:21:47.752Z,1016.55
2022-11-13T16:22:47.769Z,1016.59
2022-11-13T16:23:47.769Z,1016.58
2022-11-13T16:24:47.759Z,1016.61
2022-11-13T16:25:47.773Z,1016.64